Terminal Aerodrome Forecast
Issued by NWS

Home | Current Version | Previous Version | Text Only | Print | Product List | Glossary On
Versions: 1 2 3 4 5 6 7 8 9 10 11 12 13 14 15 16 17 18 19 20 21 22 23 24 25 26 27 28 29 30 31 32 33 34
000
FTUS41 KOKX 171700
TAFTEB
TAF
KTEB 171731Z 1718/1818 10008KT P6SM SCT040 SCT250
     FM180200 10014KT P6SM BKN025 BKN250
     FM180900 04006KT P6SM BKN015 BKN250
     FM181400 11008KT P6SM SCT015 BKN250
     FM181700 14008KT P6SM SCT015 BKN250=

USA.gov is the U.S. government's official web portal to all federal, state and local government web resources and services.